Metar z połowy godziny Komunikat METAR ze strony awiacja.imgw.pl Metar G30 EPBY METAR EPBY 200230Z VRB01KT CAVOK 15/11 Q1014 =